Walls, Mississippi
Current Conditions -  °F | °C
As of 7:54 AM on Friday 28 Nov 2014 (Local Time) from KMEM Reporting Station
Clear Clear  
Wind Chill: 27°   Ceiling: Unl
Heat Index: 34°   Visibility: 10mi
Dew Point: 24°   Wind: 9mph
Humidity: 67%   Direction: 170°S
Pressure: 30.4"   Gusts: NA
Location:  34.94°N, 90.09°W
Report Text: KMEM 281354Z 17008KT 10SM CLR 01/M04 A3040 RMK AO2 SLP297 T00111044 $
Loading
Personal Weather Stations






























Interactive Weather Map New forecast layout! Learn more

10-Day Weather Forecast

Advertisements
Track Severe Weather on mobile